Time,TemperatureF,DewpointF,PressureIn,WindDirection,WindDirectionDegrees,WindSpeedMPH,WindSpeedGustMPH,Humidity,HourlyPrecipIn,Conditions,Clouds,dailyrainin,SolarRadiationWatts/m^2,SoftwareType,DateUTC
2013-09-01 00:22:00,65.0,53.0,-100.00,SSE,151,4.0,5.0,66,0.00,,,-99.99,0.000000,,2013-09-01 06:22:00,
2013-09-01 00:32:00,65.0,53.0,-100.00,SSE,151,4.0,5.0,66,0.00,,,-99.99,0.000000,,2013-09-01 06:32:00,
2013-09-01 00:42:00,65.0,53.0,-100.00,SSE,151,4.0,5.0,66,0.00,,,-99.99,0.000000,,2013-09-01 06:42:00,
2013-09-01 01:52:00,64.0,56.0,-100.00,SSE,154,4.0,5.0,76,0.00,,,-99.99,0.000000,,2013-09-01 07:52:00,
2013-09-01 02:52:00,65.0,55.0,-100.00,SSE,153,5.0,6.0,69,0.00,,,-99.99,0.000000,,2013-09-01 08:52:00,
2013-09-01 03:53:00,64.0,56.0,-100.00,SW,223,1.0,4.0,75,0.00,,,-99.99,0.000000,,2013-09-01 09:53:00,
2013-09-01 04:23:00,64.0,56.0,-100.00,ESE,114,2.0,4.0,75,0.00,,,-99.99,0.000000,,2013-09-01 10:23:00,
2013-09-01 04:50:00,64.0,59.0,-100.00,WSW,250,2.0,3.0,82,0.00,,,-99.99,0.000000,,2013-09-01 10:50:00,
2013-09-01 04:53:00,66.0,55.0,-100.00,SSE,149,2.0,4.0,68,0.00,,,-99.99,0.000000,,2013-09-01 10:53:00,
2013-09-01 05:22:00,64.0,59.0,-100.00,WSW,250,2.0,3.0,82,0.00,,,-99.99,0.000000,,2013-09-01 11:22:00,
2013-09-01 05:32:00,64.0,59.0,-100.00,WSW,250,2.0,3.0,82,0.00,,,-99.99,0.000000,,2013-09-01 11:32:00,
2013-09-01 05:42:00,64.0,59.0,-100.00,WSW,250,2.0,3.0,82,0.00,,,-99.99,0.000000,,2013-09-01 11:42:00,
2013-09-01 06:52:00,63.0,56.0,-100.00,SE,133,3.0,4.0,76,0.00,,,-99.99,0.000000,,2013-09-01 12:52:00,
2013-09-01 08:52:00,64.0,61.0,-100.00,South,183,2.0,4.0,89,0.00,,,-99.99,66.000000,,2013-09-01 14:52:00,
2013-09-01 09:50:00,67.0,64.0,-100.00,South,184,3.0,4.0,90,0.00,,,-99.99,107.000000,,2013-09-01 15:50:00,
2013-09-01 09:55:00,66.0,62.0,-100.00,SSE,168,1.0,2.0,89,0.00,,,-99.99,93.000000,,2013-09-01 15:55:00,
2013-09-01 10:24:00,67.0,64.0,-100.00,South,184,3.0,4.0,90,0.00,,,-99.99,107.000000,,2013-09-01 16:24:00,
2013-09-01 10:34:00,67.0,64.0,-100.00,South,184,3.0,4.0,90,0.00,,,-99.99,107.000000,,2013-09-01 16:34:00,
2013-09-01 10:43:00,67.0,64.0,-100.00,South,184,3.0,4.0,90,0.00,,,-99.99,107.000000,,2013-09-01 16:43:00,
2013-09-01 11:52:00,72.0,61.0,-100.00,ENE,59,2.0,4.0,68,0.00,,,-99.99,223.000000,,2013-09-01 17:52:00,
2013-09-01 13:52:00,77.0,62.0,-100.00,West,277,5.0,7.0,60,0.00,,,-99.99,509.000000,,2013-09-01 19:52:00,
2013-09-01 14:21:00,78.0,61.0,-100.00,NW,304,4.0,7.0,56,0.00,,,-99.99,531.000000,,2013-09-01 20:21:00,
2013-09-01 14:50:00,78.0,61.0,-100.00,West,272,4.0,6.0,56,0.00,,,-99.99,309.000000,,2013-09-01 20:50:00,
2013-09-01 14:52:00,76.0,64.0,-100.00,West,262,4.0,6.0,66,0.00,,,-99.99,485.000000,,2013-09-01 20:52:00,
2013-09-01 15:21:00,78.0,61.0,-100.00,West,272,4.0,6.0,56,0.00,,,-99.99,309.000000,,2013-09-01 21:21:00,
2013-09-01 15:34:00,78.0,61.0,-100.00,West,272,4.0,6.0,56,0.00,,,-99.99,309.000000,,2013-09-01 21:34:00,
2013-09-01 15:43:00,78.0,61.0,-100.00,West,272,4.0,6.0,56,0.00,,,-99.99,309.000000,,2013-09-01 21:43:00,
2013-09-01 16:53:00,83.0,61.0,-100.00,West,280,3.0,6.0,47,0.00,,,-99.99,233.000000,,2013-09-01 22:53:00,
2013-09-01 17:53:00,82.0,67.0,-100.00,WSW,251,3.0,6.0,60,0.00,,,-99.99,224.000000,,2013-09-01 23:53:00,
2013-09-01 19:50:00,70.0,64.0,-100.00,SE,126,4.0,6.0,80,0.01,,,-99.99,2.000000,,2013-09-02 01:50:00,
2013-09-01 20:21:00,70.0,64.0,-100.00,SE,126,4.0,6.0,80,0.01,,,-99.99,2.000000,,2013-09-02 02:21:00,
2013-09-01 20:33:00,70.0,64.0,-100.00,SE,126,4.0,6.0,80,0.01,,,-99.99,2.000000,,2013-09-02 02:33:00,
2013-09-01 20:42:00,70.0,64.0,-100.00,SE,126,4.0,6.0,80,0.01,,,-99.99,2.000000,,2013-09-02 02:42:00,
2013-09-01 22:54:00,71.0,59.0,-100.00,SSE,157,7.0,11.0,67,0.00,,,-99.99,0.000000,,2013-09-02 04:54:00,
2013-09-01 23:52:00,68.0,62.0,-100.00,SSE,163,3.0,5.0,79,0.00,,,-99.99,0.000000,,2013-09-02 05:52:00,